KBGR/BGR METAR and TAF weather

Enter ICAO airport designator
Station Type Date Time Source
KBGR METAR 2018/04/20 08:53 UTC NOAA

KBGR 200853Z 29005KT 10SM OVC022 02/00 A2975 RMK AO2 RAB0757E14 SLP073 P0000 60000 T00220000 53009


Station Type Date Time Source
KBGR Decoded METAR 2018/04/20 08:53 UTC NOAA

BANGOR INT'L AIRPORT, ME, United States (KBGR) 44-48N 068-49W 57M
Apr 20, 2018 - 04:53 AM EDT / 2018.04.20 0853 UTC
Wind: from the WNW (290 degrees) at 6 MPH (5 KT):0
Visibility: 10 mile(s):0
Sky conditions: overcast
Precipitation last hour: A trace
Temperature: 36.0 F (2.2 C)
Dew Point: 32.0 F (0.0 C)
Relative Humidity: 85%
Pressure (altimeter): 29.75 in. Hg (1007 hPa)
Pressure tendency: 0.03 inches (0.9 hPa) higher than three hours ago
ob: KBGR 200853Z 29005KT 10SM OVC022 02/00 A2975 RMK AO2 RAB0757E14 SLP073 P0000 60000 T00220000 53009
cycle: 9

Station Type Date Time Source
KBGR TAF 2018/04/20 06:22 UTC NOAA

TAF KBGR 200520Z 2006/2106 32007KT P6SM VCSH BKN035 OVC070
TEMPO 2008/2012 4SM -RASN OVC025
FM201800 34010G20KT P6SM OVC035
FM202200 35010KT P6SM BKN060


Example: see airport list